Time;durP1;ratioP1;P1;durP2;ratioP2;P2;SDS_P1;SDS_P2;PMS_P1;PMS_P2;Temp;Humidity;BMP_temperature;BMP_pressure;BME280_temperature;BME280_humidity;BME280_pressure;Samples;Min_cycle;Max_cycle;Signal;HPM_P1;HPM_P2
2023/11/04 00:00:15;;;;;;;7.88;3.22;;;;;;;7.64;100.00;98063.03;5053444;28;20137;-74
2023/11/04 00:02:43;;;;;;;8.35;2.45;;;;;;;7.61;100.00;98061.44;5055437;28;20103;-75
2023/11/04 00:05:13;;;;;;;6.65;2.30;;;;;;;7.69;100.00;98072.28;5051549;28;20104;-73
2023/11/04 00:07:41;;;;;;;6.93;2.53;;;;;;;7.64;100.00;98074.41;5041596;28;20136;-74
2023/11/04 00:10:14;;;;;;;5.78;2.05;;;;;;;7.58;100.00;98069.56;5049637;28;20068;-73
2023/11/04 00:12:42;;;;;;;6.45;2.50;;;;;;;7.52;100.00;98066.56;5052549;28;20083;-74
2023/11/04 00:15:11;;;;;;;4.80;2.40;;;;;;;7.54;100.00;98062.03;5049700;28;20107;-73
2023/11/04 00:17:41;;;;;;;6.63;2.40;;;;;;;7.61;100.00;98061.44;5042401;28;20519;-74
2023/11/04 00:20:09;;;;;;;5.28;2.08;;;;;;;7.71;100.00;98062.47;5050716;28;20112;-73
2023/11/04 00:22:37;;;;;;;4.45;2.08;;;;;;;7.79;100.00;98058.44;5052233;28;20041;-74
2023/11/04 00:25:05;;;;;;;7.82;2.28;;;;;;;7.83;100.00;98057.28;5057938;28;20033;-74
2023/11/04 00:27:33;;;;;;;5.75;2.03;;;;;;;7.82;100.00;98050.31;5025019;28;20267;-73
2023/11/04 00:30:04;;;;;;;6.70;2.17;;;;;;;7.80;100.00;98047.78;5059872;28;20060;-74
2023/11/04 00:32:38;;;;;;;9.60;2.03;;;;;;;7.88;100.00;98058.59;5052023;28;20048;-73
2023/11/04 00:35:08;;;;;;;6.20;2.00;;;;;;;7.67;100.00;98039.09;5049647;28;20659;-75
2023/11/04 00:37:37;;;;;;;5.80;1.90;;;;;;;7.79;100.00;98051.38;5042690;28;20127;-73
2023/11/04 00:40:08;;;;;;;6.57;2.10;;;;;;;7.89;100.00;98057.66;5059017;28;20074;-73
2023/11/04 00:42:37;;;;;;;3.28;2.00;;;;;;;7.92;100.00;98057.44;5051337;28;20050;-75
2023/11/04 00:45:06;;;;;;;4.07;1.70;;;;;;;7.88;100.00;98045.44;5052736;28;20040;-73
2023/11/04 00:47:35;;;;;;;4.57;2.13;;;;;;;7.88;100.00;98050.69;5043834;28;20076;-73
2023/11/04 00:50:04;;;;;;;5.22;1.98;;;;;;;7.79;100.00;98046.13;5048159;28;20524;-74
2023/11/04 00:52:48;;;;;;;3.70;1.88;;;;;;;7.97;100.00;98059.75;5064052;28;20049;-76
2023/11/04 00:55:17;;;;;;;6.03;1.95;;;;;;;8.02;100.00;98053.19;5033389;28;20436;-74
2023/11/04 00:57:46;;;;;;;5.60;2.03;;;;;;;8.07;100.00;98066.00;5067707;28;20056;-73
2023/11/04 01:00:15;;;;;;;6.70;2.10;;;;;;;8.04;100.00;98056.53;5057982;28;20055;-73
2023/11/04 01:02:43;;;;;;;4.63;1.73;;;;;;;7.98;100.00;98054.34;5036074;28;20275;-73
2023/11/04 01:05:12;;;;;;;5.53;1.80;;;;;;;7.98;100.00;98049.09;5050908;28;20660;-73
2023/11/04 01:07:40;;;;;;;4.75;1.70;;;;;;;8.03;100.00;98048.72;5037844;28;20116;-72
2023/11/04 01:10:13;;;;;;;4.95;1.65;;;;;;;8.03;100.00;98048.72;5045848;28;20104;-74
2023/11/04 01:12:42;;;;;;;5.68;2.10;;;;;;;8.06;100.00;98059.06;5042987;28;20049;-73
2023/11/04 01:15:11;;;;;;;5.63;1.60;;;;;;;7.99;100.00;98048.13;5048551;28;20079;-74
2023/11/04 01:17:39;;;;;;;6.05;1.70;;;;;;;7.94;100.00;98044.16;5029483;28;20055;-74
2023/11/04 01:20:09;;;;;;;3.83;2.40;;;;;;;8.06;100.00;98045.88;5051430;28;20071;-74
2023/11/04 01:22:37;;;;;;;4.03;1.30;;;;;;;8.05;100.00;98034.47;5048867;28;20053;-74
2023/11/04 01:25:06;;;;;;;3.15;1.30;;;;;;;8.12;100.00;98047.22;5052476;28;20048;-74
2023/11/04 01:27:36;;;;;;;2.20;1.52;;;;;;;8.15;100.00;98042.56;5043691;28;20081;-74
2023/11/04 01:30:07;;;;;;;3.33;1.40;;;;;;;8.18;100.00;98033.59;5032482;28;20041;-74
2023/11/04 01:32:35;;;;;;;3.15;1.30;;;;;;;8.21;100.00;98028.06;5046259;28;20045;-74
2023/11/04 01:35:08;;;;;;;2.97;1.20;;;;;;;8.27;100.00;98035.53;5049842;28;20068;-73
2023/11/04 01:37:37;;;;;;;4.05;1.30;;;;;;;8.26;100.00;98036.50;5040010;28;20494;-75
2023/11/04 01:40:11;;;;;;;3.85;1.27;;;;;;;8.28;100.00;98031.94;5063980;28;20047;-74
2023/11/04 01:42:44;;;;;;;2.38;1.25;;;;;;;8.30;100.00;98038.78;5052478;28;20420;-73
2023/11/04 01:45:14;;;;;;;2.67;1.25;;;;;;;8.30;100.00;98035.31;5034245;28;20054;-73
2023/11/04 01:47:45;;;;;;;3.85;1.27;;;;;;;8.31;100.00;98037.00;5045639;28;20044;-73
2023/11/04 01:50:16;;;;;;;2.67;1.30;;;;;;;8.30;100.00;98030.88;5046402;28;20057;-74
2023/11/04 01:52:46;;;;;;;2.90;1.35;;;;;;;8.24;100.00;98026.06;5047009;28;20056;-73
2023/11/04 01:55:17;;;;;;;2.83;1.30;;;;;;;8.33;100.00;98037.75;5049263;28;20502;-74
2023/11/04 01:57:47;;;;;;;1.60;1.10;;;;;;;8.41;100.00;98032.72;5027352;28;20057;-73
2023/11/04 02:00:16;;;;;;;3.20;1.00;;;;;;;8.43;100.00;98026.38;5047810;28;20057;-73
2023/11/04 02:02:46;;;;;;;2.40;1.33;;;;;;;8.37;100.00;98007.53;5034709;28;20083;-72
2023/11/04 02:05:16;;;;;;;3.67;1.65;;;;;;;8.46;100.00;98030.59;5052563;28;20144;-73
2023/11/04 02:07:44;;;;;;;2.53;1.17;;;;;;;8.38;100.00;98015.34;5042686;28;20215;-73
2023/11/04 02:10:13;;;;;;;3.65;1.38;;;;;;;8.35;100.00;98018.19;5050609;28;20037;-74
2023/11/04 02:12:42;;;;;;;3.72;1.52;;;;;;;8.36;100.00;98019.88;5055761;28;20131;-73
2023/11/04 02:15:17;;;;;;;3.80;1.05;;;;;;;8.35;100.00;98020.00;5055889;28;20421;-75
2023/11/04 02:17:46;;;;;;;3.45;1.20;;;;;;;8.39;100.00;98030.19;5032972;28;20687;-74
2023/11/04 02:20:16;;;;;;;2.70;1.17;;;;;;;8.37;100.00;98033.91;5071741;28;20512;-73
2023/11/04 02:22:48;;;;;;;3.75;1.60;;;;;;;8.31;100.00;98026.44;5039320;28;20114;-73
2023/11/04 02:25:19;;;;;;;2.45;1.42;;;;;;;8.31;100.00;98026.44;5053194;28;20037;-73
2023/11/04 02:27:48;;;;;;;4.85;1.77;;;;;;;8.34;100.00;98020.97;5031765;28;20090;-74
2023/11/04 02:30:16;;;;;;;3.70;1.80;;;;;;;8.23;100.00;98023.53;5035911;28;20119;-73
2023/11/04 02:32:46;;;;;;;3.28;1.55;;;;;;;8.29;100.00;98031.00;5059178;28;20042;-74
2023/11/04 02:35:15;;;;;;;6.20;1.67;;;;;;;8.26;100.00;98024.16;5067225;28;20079;-73
2023/11/04 02:37:45;;;;;;;2.75;1.90;;;;;;;8.24;100.00;98033.13;5056905;28;20136;-73
2023/11/04 02:40:15;;;;;;;3.53;1.85;;;;;;;8.27;100.00;98025.00;5036003;28;20059;-74
2023/11/04 02:42:43;;;;;;;3.55;1.80;;;;;;;8.32;100.00;98025.53;5065797;28;20397;-74
2023/11/04 02:45:12;;;;;;;3.90;2.13;;;;;;;8.23;100.00;98010.34;5052648;28;20052;-75
2023/11/04 02:47:40;;;;;;;3.65;1.90;;;;;;;8.30;100.00;98022.13;5051072;28;20037;-74
2023/11/04 02:50:13;;;;;;;3.13;1.63;;;;;;;8.30;100.00;98014.22;5053562;28;20037;-75
2023/11/04 02:52:41;;;;;;;4.60;2.05;;;;;;;8.34;100.00;98007.78;5054165;28;20573;-75
2023/11/04 02:55:10;;;;;;;7.85;2.15;;;;;;;8.27;100.00;98007.38;5053869;28;20406;-73
2023/11/04 02:57:42;;;;;;;4.22;1.70;;;;;;;8.20;100.00;97994.75;5047967;28;20041;-73
2023/11/04 03:00:11;;;;;;;6.38;2.53;;;;;;;8.14;100.00;97988.16;5045896;28;20067;-74
2023/11/04 03:02:39;;;;;;;4.53;2.22;;;;;;;8.12;100.00;97997.97;5055743;28;20073;-74
2023/11/04 03:05:09;;;;;;;3.75;2.13;;;;;;;8.07;100.00;97994.84;5053692;28;20045;-74
2023/11/04 03:07:41;;;;;;;3.58;1.90;;;;;;;8.10;100.00;98005.16;5053638;28;20509;-74
2023/11/04 03:10:11;;;;;;;4.75;1.95;;;;;;;8.06;100.00;98007.19;5041353;28;20041;-73
2023/11/04 03:12:43;;;;;;;2.83;1.73;;;;;;;8.08;100.00;98005.28;5053515;28;20140;-73
2023/11/04 03:15:11;;;;;;;5.00;2.20;;;;;;;8.07;100.00;98002.75;5050723;28;20129;-73
2023/11/04 03:17:39;;;;;;;4.45;1.90;;;;;;;8.02;100.00;97989.94;5051809;28;20072;-74
2023/11/04 03:20:10;;;;;;;3.17;1.80;;;;;;;8.01;100.00;97967.16;5046775;28;20053;-73
2023/11/04 03:22:39;;;;;;;3.25;1.63;;;;;;;8.24;100.00;98002.31;5052530;28;20817;-73
2023/11/04 03:25:09;;;;;;;4.45;2.00;;;;;;;8.19;100.00;97985.16;5049694;28;20033;-73
2023/11/04 03:27:37;;;;;;;3.17;1.67;;;;;;;8.22;100.00;97990.22;5049343;28;20068;-73
2023/11/04 03:30:10;;;;;;;3.33;1.90;;;;;;;8.18;100.00;97984.34;5059858;28;20132;-73
2023/11/04 03:32:41;;;;;;;3.63;1.58;;;;;;;8.22;100.00;97988.41;5066263;28;20685;-73
2023/11/04 03:35:10;;;;;;;2.92;1.83;;;;;;;8.21;100.00;97981.47;5049978;28;20041;-73
2023/11/04 03:37:38;;;;;;;4.78;1.90;;;;;;;8.28;100.00;97982.69;5021419;28;20498;-73
2023/11/04 03:40:07;;;;;;;2.60;1.80;;;;;;;8.27;100.00;97978.38;5046118;28;20049;-73
2023/11/04 03:42:36;;;;;;;3.17;1.80;;;;;;;8.33;100.00;97979.75;5056616;28;20053;-74
2023/11/04 03:45:09;;;;;;;3.63;1.60;;;;;;;8.33;100.00;97990.28;5070053;28;20041;-72
2023/11/04 03:47:37;;;;;;;5.50;1.88;;;;;;;8.33;100.00;97977.94;5051241;28;20060;-73
2023/11/04 03:50:06;;;;;;;4.47;1.80;;;;;;;8.29;100.00;97983.53;5063152;28;20040;-75
2023/11/04 03:52:35;;;;;;;3.22;1.95;;;;;;;8.30;100.00;97980.78;5053246;28;20044;-74
2023/11/04 03:55:03;;;;;;;4.80;2.10;;;;;;;8.31;100.00;97984.25;5022477;28;20115;-73
2023/11/04 03:57:32;;;;;;;4.63;2.05;;;;;;;8.33;100.00;97992.94;5054259;28;20064;-73
2023/11/04 04:00:03;;;;;;;3.78;1.75;;;;;;;8.27;100.00;97978.38;5042101;28;20128;-73
2023/11/04 04:02:55;;;;;;;1.90;1.50;;;;;;;8.21;100.00;97967.44;5039116;28;20453;-75
2023/11/04 04:05:24;;;;;;;3.63;1.80;;;;;;;8.21;100.00;97983.25;5049344;28;20061;-73
2023/11/04 04:07:52;;;;;;;4.13;2.10;;;;;;;8.13;100.00;97960.13;5032721;28;20053;-74
2023/11/04 04:10:20;;;;;;;4.93;1.98;;;;;;;8.22;100.00;97966.47;5044896;28;20421;-74
2023/11/04 04:12:51;;;;;;;3.22;1.80;;;;;;;8.30;100.00;97969.41;5050146;28;20079;-74
2023/11/04 04:15:21;;;;;;;5.20;1.80;;;;;;;8.24;100.00;97954.03;5032222;28;20049;-74
2023/11/04 04:17:51;;;;;;;4.90;1.73;;;;;;;8.33;100.00;97958.66;5029633;28;20040;-74
2023/11/04 04:20:21;;;;;;;3.78;1.90;;;;;;;8.35;100.00;97959.34;5038967;28;20087;-73
2023/11/04 04:22:50;;;;;;;3.58;1.70;;;;;;;8.31;100.00;97955.25;5058834;28;21329;-74
2023/11/04 04:25:19;;;;;;;5.05;2.05;;;;;;;8.30;100.00;97945.66;5041384;28;20041;-73
2023/11/04 04:27:47;;;;;;;3.28;1.45;;;;;;;8.27;100.00;97938.81;5039841;28;20075;-73
2023/11/04 04:30:16;;;;;;;3.97;1.67;;;;;;;8.26;100.00;97939.78;5058617;28;20073;-74
2023/11/04 04:32:46;;;;;;;4.28;1.77;;;;;;;8.30;100.00;97924.56;5069126;28;20049;-73
2023/11/04 04:35:15;;;;;;;1.50;1.40;;;;;;;8.29;100.00;97929.00;5042492;28;20490;-74
2023/11/04 04:37:44;;;;;;;2.58;1.80;;;;;;;8.23;100.00;97912.81;5036623;28;20041;-73
2023/11/04 04:40:13;;;;;;;4.90;1.45;;;;;;;8.29;100.00;97928.16;5039262;28;20049;-74
2023/11/04 04:42:41;;;;;;;4.53;1.73;;;;;;;8.33;100.00;97917.31;5070428;28;20039;-74
2023/11/04 04:45:10;;;;;;;2.95;1.50;;;;;;;8.35;100.00;97911.88;5066454;28;20056;-74
2023/11/04 04:47:40;;;;;;;3.67;1.58;;;;;;;8.33;100.00;97898.84;5064534;28;20174;-74
2023/11/04 04:50:09;;;;;;;1.80;1.30;;;;;;;8.35;100.00;97917.16;5049041;28;20592;-74
2023/11/04 04:52:40;;;;;;;2.30;1.25;;;;;;;8.28;100.00;97910.66;5060158;28;20044;-73
2023/11/04 04:55:14;;;;;;;2.85;1.60;;;;;;;8.29;100.00;97901.78;5048800;28;20045;-73
2023/11/04 04:57:42;;;;;;;4.75;1.40;;;;;;;8.29;100.00;97896.53;5056555;28;20109;-73
2023/11/04 05:00:12;;;;;;;3.97;1.63;;;;;;;8.43;100.00;97907.72;5043248;28;20041;-72
2023/11/04 05:02:42;;;;;;;5.53;1.52;;;;;;;8.35;100.00;97890.78;5065152;28;20055;-73
2023/11/04 05:05:10;;;;;;;3.10;1.50;;;;;;;8.38;100.00;97904.56;5034745;28;20051;-74
2023/11/04 05:07:38;;;;;;;2.15;1.45;;;;;;;8.36;100.00;97903.00;5068231;28;20055;-73
2023/11/04 05:10:13;;;;;;;2.00;1.30;;;;;;;8.29;100.00;97893.88;5040616;28;20509;-73
2023/11/04 05:12:41;;;;;;;2.80;1.40;;;;;;;8.38;100.00;97903.75;5056465;28;20500;-73
2023/11/04 05:15:09;;;;;;;2.65;1.65;;;;;;;8.32;100.00;97897.16;5055440;28;20040;-73
2023/11/04 05:17:37;;;;;;;2.08;1.33;;;;;;;8.37;100.00;97894.16;5052129;28;20053;-74
2023/11/04 05:20:08;;;;;;;2.53;1.60;;;;;;;8.28;100.00;97881.66;5032178;28;20346;-74
2023/11/04 05:22:35;;;;;;;;;;;;;;;8.35;100.00;97891.63;5050868;28;20136;-73
2023/11/04 05:25:07;;;;;;;3.95;1.30;;;;;;;8.34;100.00;97879.41;5051173;28;20237;-73
2023/11/04 05:27:39;;;;;;;3.47;1.27;;;;;;;8.37;100.00;97884.44;5047910;28;20144;-74
2023/11/04 05:30:10;;;;;;;2.03;1.20;;;;;;;8.33;100.00;97869.84;5028359;28;20110;-73
2023/11/04 05:32:39;;;;;;;3.17;1.38;;;;;;;8.33;100.00;97871.63;5033365;28;20056;-73
2023/11/04 05:35:08;;;;;;;2.78;1.08;;;;;;;8.36;100.00;97864.31;5049993;28;20395;-73
2023/11/04 05:37:36;;;;;;;1.77;1.30;;;;;;;8.39;100.00;97869.34;5032820;28;20537;-73
2023/11/04 05:40:07;;;;;;;2.00;1.05;;;;;;;8.37;100.00;97871.25;5036801;28;22068;-73
2023/11/04 05:42:36;;;;;;;3.45;1.50;;;;;;;8.35;100.00;97864.41;5048413;28;20064;-74
2023/11/04 05:45:06;;;;;;;1.85;1.20;;;;;;;8.34;100.00;97860.13;5047311;28;20033;-73
2023/11/04 05:47:34;;;;;;;2.72;1.35;;;;;;;8.35;100.00;97861.78;5051097;28;20045;-74
2023/11/04 05:50:02;;;;;;;2.47;1.20;;;;;;;8.46;100.00;97861.81;5038355;28;20045;-74
2023/11/04 05:52:33;;;;;;;4.13;1.15;;;;;;;8.48;100.00;97859.88;5050453;28;20037;-74
2023/11/04 05:55:01;;;;;;;4.15;1.52;;;;;;;8.44;100.00;97859.28;5043120;28;20513;-74
2023/11/04 05:57:31;;;;;;;2.42;1.20;;;;;;;8.46;100.00;97848.63;5050928;28;20067;-73
2023/11/04 06:00:05;;;;;;;2.80;1.35;;;;;;;8.41;100.00;97841.06;5036091;28;20394;-73
2023/11/04 06:02:34;;;;;;;2.42;1.20;;;;;;;8.33;100.00;97835.56;5050195;28;20115;-73
2023/11/04 06:05:04;;;;;;;2.20;1.20;;;;;;;8.49;100.00;97855.44;5067510;28;20102;-73
2023/11/04 06:07:35;;;;;;;2.90;1.40;;;;;;;8.56;100.00;97844.28;5066900;28;20059;-72
2023/11/04 06:10:08;;;;;;;3.40;1.40;;;;;;;8.44;100.00;97837.34;5049857;28;20053;-73
2023/11/04 06:12:39;;;;;;;1.83;1.20;;;;;;;8.48;100.00;97838.78;5055717;28;20048;-73
2023/11/04 06:15:10;;;;;;;2.33;1.27;;;;;;;8.45;100.00;97844.31;5055508;28;20049;-73
2023/11/04 06:17:39;;;;;;;1.60;1.20;;;;;;;8.41;100.00;97837.59;5049035;28;20067;-72
2023/11/04 06:20:11;;;;;;;2.15;1.42;;;;;;;8.40;100.00;97838.53;5039917;28;20587;-73
2023/11/04 06:22:43;;;;;;;1.85;1.20;;;;;;;8.39;100.00;97844.78;5051991;28;20528;-75
2023/11/04 06:25:11;;;;;;;3.55;1.27;;;;;;;8.33;100.00;97835.56;5053785;28;20097;-75
2023/11/04 06:27:39;;;;;;;2.53;1.27;;;;;;;8.42;100.00;97837.47;5045372;28;20041;-74
2023/11/04 06:30:13;;;;;;;2.88;1.33;;;;;;;8.41;100.00;97832.31;5042844;28;20479;-76
2023/11/04 06:32:41;;;;;;;1.60;1.17;;;;;;;8.38;100.00;97835.19;5081748;28;20052;-75
2023/11/04 06:35:09;;;;;;;3.17;1.20;;;;;;;8.42;100.00;97826.91;5049762;28;20088;-74
2023/11/04 06:37:41;;;;;;;2.95;1.00;;;;;;;8.44;100.00;97825.00;5043489;28;20040;-74
2023/11/04 06:40:11;;;;;;;1.13;0.93;;;;;;;8.44;100.00;97810.97;5048668;28;20078;-74
2023/11/04 06:42:39;;;;;;;2.17;1.02;;;;;;;8.36;100.00;97797.53;5049604;28;20046;-75
2023/11/04 06:45:11;;;;;;;1.63;1.17;;;;;;;8.47;100.00;97810.75;5049280;28;20049;-73
2023/11/04 06:47:39;;;;;;;1.45;1.08;;;;;;;8.33;100.00;97774.06;5045969;28;20056;-74
2023/11/04 06:50:11;;;;;;;2.08;1.20;;;;;;;8.43;100.00;97783.75;5052334;28;20099;-74
2023/11/04 06:52:39;;;;;;;2.90;1.13;;;;;;;8.54;100.00;97801.34;5064946;28;20052;-74
2023/11/04 06:55:09;;;;;;;1.88;1.10;;;;;;;8.54;100.00;97782.06;5034208;28;20738;-75
2023/11/04 06:57:37;;;;;;;1.35;0.82;;;;;;;8.56;100.00;97783.63;5053054;28;20047;-73
2023/11/04 07:00:11;;;;;;;2.33;1.10;;;;;;;8.57;100.00;97793.19;5050235;28;20049;-73
2023/11/04 07:02:41;;;;;;;1.80;0.98;;;;;;;8.62;100.00;97791.03;5050702;28;20072;-73
2023/11/04 07:05:10;;;;;;;2.63;1.23;;;;;;;8.63;100.00;97800.63;5059132;28;20131;-73
2023/11/04 07:07:39;;;;;;;1.67;1.08;;;;;;;8.71;100.00;97792.09;5059071;28;20116;-75
2023/11/04 07:10:09;;;;;;;3.83;0.85;;;;;;;8.65;100.00;97795.25;5041970;28;20103;-73
2023/11/04 07:12:38;;;;;;;1.67;0.95;;;;;;;8.61;100.00;97789.38;5043519;28;20053;-74
2023/11/04 07:15:09;;;;;;;1.27;0.98;;;;;;;8.60;100.00;97784.22;5044600;28;20430;-74
2023/11/04 07:17:37;;;;;;;1.48;0.98;;;;;;;8.69;100.00;97789.56;5053123;28;20045;-74
2023/11/04 07:20:10;;;;;;;2.03;0.80;;;;;;;8.70;100.00;97785.97;5048334;28;20173;-74
2023/11/04 07:22:38;;;;;;;1.77;0.90;;;;;;;8.66;100.00;97783.69;5047627;28;20068;-74
2023/11/04 07:25:09;;;;;;;3.55;1.15;;;;;;;8.67;100.00;97780.94;5050563;28;20049;-75
2023/11/04 07:27:39;;;;;;;2.97;1.20;;;;;;;8.78;100.00;97788.84;5047108;28;20103;-75
2023/11/04 07:30:09;;;;;;;3.30;1.08;;;;;;;8.76;100.00;97785.50;5060552;28;20057;-74
2023/11/04 07:32:41;;;;;;;3.17;0.80;;;;;;;8.76;100.00;97788.13;5044601;28;20320;-76
2023/11/04 07:35:11;;;;;;;1.73;0.90;;;;;;;8.86;100.00;97774.19;5053003;28;20579;-75
2023/11/04 07:37:39;;;;;;;1.52;0.80;;;;;;;8.79;100.00;97771.22;5050862;28;20041;-73
2023/11/04 07:40:13;;;;;;;2.35;1.23;;;;;;;8.84;100.00;97779.56;5036638;28;20070;-74
2023/11/04 07:42:41;;;;;;;2.83;0.93;;;;;;;8.82;100.00;97749.84;5047702;28;20468;-73
2023/11/04 07:45:12;;;;;;;1.25;0.75;;;;;;;8.92;100.00;97763.13;5049522;28;20048;-76
2023/11/04 07:47:40;;;;;;;2.47;0.80;;;;;;;8.93;100.00;97760.38;5050200;28;20533;-73
2023/11/04 07:50:11;;;;;;;2.45;0.90;;;;;;;8.95;100.00;97763.72;5040795;28;20128;-73
2023/11/04 07:52:41;;;;;;;;;;;;;;;8.91;100.00;97757.00;5045282;28;20068;-73
2023/11/04 07:55:25;;;;;;;2.60;1.20;;;;;;;8.92;100.00;97753.41;5053237;28;19928;-74
2023/11/04 07:57:53;;;;;;;2.35;1.05;;;;;;;8.97;100.00;97753.03;5053656;28;20065;-73
2023/11/04 08:00:24;;;;;;;1.02;0.90;;;;;;;8.99;100.00;97751.09;5041484;28;20057;-74
2023/11/04 08:02:52;;;;;;;0.88;0.80;;;;;;;9.01;100.00;97743.88;5051007;28;20405;-74
2023/11/04 08:05:21;;;;;;;1.88;0.70;;;;;;;9.02;100.00;97729.72;5045066;28;20053;-73
2023/11/04 08:07:50;;;;;;;1.33;0.77;;;;;;;9.11;100.00;97732.47;5055877;28;20065;-74
2023/11/04 08:10:18;;;;;;;2.33;0.70;;;;;;;9.13;100.00;97719.09;5042844;28;22002;-75
2023/11/04 08:12:50;;;;;;;1.60;0.60;;;;;;;9.13;100.00;97701.47;5061986;28;20051;-73
2023/11/04 08:15:18;;;;;;;3.30;0.70;;;;;;;9.11;100.00;97706.06;5053145;28;20045;-74
2023/11/04 08:17:47;;;;;;;2.47;0.80;;;;;;;9.12;100.00;97707.75;5040279;28;20049;-73
2023/11/04 08:20:16;;;;;;;1.55;0.60;;;;;;;9.24;100.00;97699.75;5052781;28;20053;-73
2023/11/04 08:22:47;;;;;;;2.92;0.60;;;;;;;9.22;100.00;97694.59;5044317;28;20063;-74
2023/11/04 08:25:22;;;;;;;1.25;0.70;;;;;;;9.24;100.00;97695.31;5051243;28;20094;-72
2023/11/04 08:27:50;;;;;;;1.63;0.80;;;;;;;9.33;100.00;97696.31;5043036;28;20049;-74
2023/11/04 08:30:21;;;;;;;2.00;0.80;;;;;;;9.31;100.00;97704.38;5061271;28;20049;-73
2023/11/04 08:32:50;;;;;;;1.13;0.53;;;;;;;9.35;100.00;97687.28;5063117;28;21214;-74
2023/11/04 08:35:18;;;;;;;1.83;0.80;;;;;;;9.41;100.00;97689.44;5047570;28;20487;-74
2023/11/04 08:37:49;;;;;;;0.60;0.60;;;;;;;9.44;100.00;97680.41;5051978;28;20049;-74
2023/11/04 08:40:19;;;;;;;0.85;0.80;;;;;;;9.37;100.00;97668.69;5049609;28;20050;-74
2023/11/04 08:42:53;;;;;;;2.63;0.80;;;;;;;9.41;100.00;97665.66;5047305;28;20040;-75
2023/11/04 08:45:21;;;;;;;1.50;0.57;;;;;;;9.48;100.00;97677.34;5054790;28;20037;-74
2023/11/04 08:47:49;;;;;;;2.95;0.82;;;;;;;9.54;100.00;97685.72;5063276;28;20072;-73
2023/11/04 08:50:17;;;;;;;1.30;0.60;;;;;;;9.57;100.00;97681.03;5049843;28;20084;-74
2023/11/04 08:52:45;;;;;;;2.15;0.60;;;;;;;9.68;100.00;97670.38;5040696;28;20056;-73
2023/11/04 08:55:15;;;;;;;2.20;0.90;;;;;;;9.81;100.00;97667.50;5049014;28;20049;-73
2023/11/04 08:57:44;;;;;;;1.75;0.70;;;;;;;9.92;100.00;97648.88;5043753;28;20464;-72
2023/11/04 09:00:13;;;;;;;2.53;0.80;;;;;;;10.10;100.00;97647.25;5046435;28;20053;-73
2023/11/04 09:02:41;;;;;;;0.93;0.50;;;;;;;10.30;100.00;97653.47;5045733;28;20037;-73
2023/11/04 09:05:10;;;;;;;0.80;0.50;;;;;;;10.49;100.00;97642.91;5044782;28;20069;-73
2023/11/04 09:07:44;;;;;;;1.45;0.80;;;;;;;10.41;100.00;97634.81;5063681;28;20048;-73
2023/11/04 09:10:18;;;;;;;0.93;0.50;;;;;;;10.45;100.00;97632.72;5029951;28;20064;-73
2023/11/04 09:12:47;;;;;;;2.10;0.40;;;;;;;10.55;100.00;97620.31;5041702;28;20077;-74
2023/11/04 09:15:16;;;;;;;2.17;0.55;;;;;;;10.62;100.00;97600.28;5035975;28;20059;-74
2023/11/04 09:17:44;;;;;;;1.88;0.50;;;;;;;10.81;100.00;97616.16;5055468;28;20570;-73
2023/11/04 09:20:13;;;;;;;2.45;0.50;;;;;;;10.98;100.00;97608.47;5053228;28;20049;-73
2023/11/04 09:22:41;;;;;;;1.55;0.60;;;;;;;11.08;100.00;97601.34;5035601;28;20049;-73
2023/11/04 09:25:10;;;;;;;2.70;0.60;;;;;;;11.01;100.00;97589.66;5046521;28;20614;-74
2023/11/04 09:27:41;;;;;;;1.15;0.60;;;;;;;11.10;100.00;97583.50;5052490;28;20100;-74
2023/11/04 09:30:14;;;;;;;1.33;0.50;;;;;;;11.19;100.00;97583.44;5053010;28;20154;-74
2023/11/04 09:32:41;;;;;;;0.68;0.45;;;;;;;11.26;100.00;97578.44;5040927;28;20052;-73
2023/11/04 09:35:12;;;;;;;0.63;0.40;;;;;;;11.28;100.00;97576.47;5058533;28;20068;-75
2023/11/04 09:37:43;;;;;;;1.02;0.40;;;;;;;11.32;100.00;97572.56;5047016;28;20044;-73
2023/11/04 09:40:12;;;;;;;2.00;0.80;;;;;;;11.34;100.00;97567.91;5042822;28;20080;-74
2023/11/04 09:42:42;;;;;;;3.33;0.70;;;;;;;11.31;100.00;97570.88;5043414;28;20064;-73
2023/11/04 09:45:12;;;;;;;2.42;0.80;;;;;;;11.31;100.00;97564.75;5068102;28;20655;-73
2023/11/04 09:47:47;;;;;;;2.13;0.60;;;;;;;11.30;100.00;97558.63;5053722;28;20044;-73
2023/11/04 09:50:16;;;;;;;3.17;0.50;;;;;;;11.27;100.00;97556.25;5033391;28;20694;-73
2023/11/04 09:52:48;;;;;;;2.88;0.50;;;;;;;11.26;100.00;97551.94;5047239;28;20528;-73
2023/11/04 09:55:19;;;;;;;1.23;0.63;;;;;;;11.24;100.00;97540.66;5074035;28;20045;-73
2023/11/04 09:57:50;;;;;;;1.35;0.50;;;;;;;11.27;100.00;97537.72;5053686;28;20048;-74
2023/11/04 10:00:20;;;;;;;2.05;0.70;;;;;;;11.31;100.00;97531.16;5044330;28;20133;-74
2023/11/04 10:02:49;;;;;;;1.65;0.45;;;;;;;11.35;100.00;97516.59;5041063;28;20083;-75
2023/11/04 10:05:18;;;;;;;1.50;0.47;;;;;;;11.43;100.00;97526.47;5029477;28;20564;-74
2023/11/04 10:07:47;;;;;;;2.13;0.70;;;;;;;11.48;100.00;97513.63;5049688;28;20041;-74
2023/11/04 10:10:15;;;;;;;0.68;0.30;;;;;;;11.58;100.00;97507.28;5045174;28;20060;-74
2023/11/04 10:12:57;;;;;;;0.90;0.50;;;;;;;11.62;100.00;97493.75;5039304;28;20537;-75
2023/11/04 10:15:29;;;;;;;0.47;0.40;;;;;;;11.55;100.00;97482.91;5048361;28;20041;-73
2023/11/04 10:17:57;;;;;;;1.58;0.50;;;;;;;11.52;100.00;97478.72;5050083;28;20033;-74
2023/11/04 10:20:25;;;;;;;2.28;0.90;;;;;;;11.57;100.00;97486.25;5054592;28;20426;-73
2023/11/04 10:22:53;;;;;;;1.30;0.57;;;;;;;11.64;100.00;97482.03;5039811;28;20052;-74
2023/11/04 10:25:25;;;;;;;0.52;0.40;;;;;;;11.60;100.00;97462.09;5049496;28;20094;-73
2023/11/04 10:27:53;;;;;;;1.23;0.60;;;;;;;11.61;100.00;97458.47;5060677;28;20100;-73
2023/11/04 10:30:23;;;;;;;0.85;0.40;;;;;;;11.83;100.00;97465.16;5080375;28;20075;-72
2023/11/04 10:33:00;;;;;;;1.73;0.30;;;;;;;11.89;100.00;97452.13;5057463;28;20044;-75
2023/11/04 10:35:29;;;;;;;1.38;0.60;;;;;;;12.01;100.00;97450.09;5067764;28;20104;-75
2023/11/04 10:38:05;;;;;;;1.17;0.40;;;;;;;12.02;100.00;97443.78;5060843;28;20076;-73
2023/11/04 10:40:34;;;;;;;1.30;0.55;;;;;;;12.14;99.24;97439.06;5063652;28;20045;-73
2023/11/04 10:43:09;;;;;;;0.95;0.55;;;;;;;12.20;98.37;97428.69;5049408;28;20045;-74
2023/11/04 10:45:45;;;;;;;1.15;0.50;;;;;;;12.23;98.01;97419.59;5060198;28;20639;-74
2023/11/04 10:48:20;;;;;;;0.70;0.40;;;;;;;12.30;95.69;97415.31;5054537;28;20049;-74
2023/11/04 10:50:55;;;;;;;0.60;0.40;;;;;;;12.31;97.25;97401.06;5054462;28;20053;-75
2023/11/04 10:53:41;;;;;;;3.42;0.50;;;;;;;12.26;95.55;97388.28;5055130;28;20045;-73
2023/11/04 10:56:20;;;;;;;2.42;0.68;;;;;;;12.37;95.01;97396.97;5058890;28;20045;-74
2023/11/04 10:59:03;;;;;;;3.00;0.63;;;;;;;12.35;94.92;97391.81;5056359;28;20109;-73
2023/11/04 11:01:37;;;;;;;0.80;0.50;;;;;;;12.26;95.36;97385.63;5051572;28;20052;-75
2023/11/04 11:04:08;;;;;;;1.23;0.50;;;;;;;12.19;96.93;97387.22;5055403;28;20045;-74
2023/11/04 11:06:40;;;;;;;0.93;0.40;;;;;;;12.01;98.58;97375.81;5055419;28;20119;-74
2023/11/04 11:09:11;;;;;;;1.35;0.70;;;;;;;11.94;96.43;97364.19;5057559;28;20045;-74
2023/11/04 11:11:44;;;;;;;;;;;;;;;11.92;97.90;97363.50;5053690;28;20128;-74
2023/11/04 11:14:15;;;;;;;2.22;0.77;;;;;;;12.03;96.92;97349.97;5070580;28;19927;-73
2023/11/04 11:16:44;;;;;;;1.10;0.45;;;;;;;12.03;97.60;97335.91;5053957;28;20042;-75
2023/11/04 11:19:13;;;;;;;2.00;0.50;;;;;;;12.11;95.65;97331.50;5057032;28;20044;-74
2023/11/04 11:21:51;;;;;;;2.50;0.70;;;;;;;12.17;93.39;97330.00;5050183;28;20452;-75
2023/11/04 11:24:22;;;;;;;1.30;0.75;;;;;;;12.14;94.09;97320.53;5051249;28;20063;-74
2023/11/04 11:27:02;;;;;;;1.52;0.60;;;;;;;12.11;94.71;97315.56;5053293;28;20045;-75
2023/11/04 11:29:33;;;;;;;2.22;0.80;;;;;;;12.05;95.72;97310.88;5048533;28;20072;-75
2023/11/04 11:32:08;;;;;;;1.88;0.57;;;;;;;11.98;94.32;97304.53;5049545;28;20041;-73
2023/11/04 11:34:37;;;;;;;2.88;0.80;;;;;;;11.96;94.61;97298.56;5051082;28;20048;-75
2023/11/04 11:37:06;;;;;;;2.20;0.45;;;;;;;12.03;93.50;97310.19;5061064;28;20503;-74
2023/11/04 11:39:36;;;;;;;1.15;0.40;;;;;;;11.94;93.84;97303.19;5057709;28;20067;-72
2023/11/04 11:42:07;;;;;;;2.05;0.70;;;;;;;11.87;94.76;97294.19;5056035;28;20040;-76
2023/11/04 11:44:36;;;;;;;1.45;0.70;;;;;;;11.80;95.46;97294.00;5057093;28;20123;-74
2023/11/04 11:47:08;;;;;;;4.03;0.77;;;;;;;11.73;96.77;97289.41;5053608;28;20184;-75